sensor_id;sensor_type;location;lat;lon;timestamp;temperature;humidity
75994;DHT22;64680;53.800;9.988;2023-12-14T00:02:02;3.20;86.30
75994;DHT22;64680;53.800;9.988;2023-12-14T00:04:27;3.20;87.40
75994;DHT22;64680;53.800;9.988;2023-12-14T00:06:53;3.20;87.70
75994;DHT22;64680;53.800;9.988;2023-12-14T00:09:19;3.20;86.20
75994;DHT22;64680;53.800;9.988;2023-12-14T00:11:45;3.20;85.80
75994;DHT22;64680;53.800;9.988;2023-12-14T00:14:14;3.10;86.30
75994;DHT22;64680;53.800;9.988;2023-12-14T00:16:42;3.20;87.60
75994;DHT22;64680;53.800;9.988;2023-12-14T00:19:07;3.10;87.50
75994;DHT22;64680;53.800;9.988;2023-12-14T00:21:33;3.20;88.20
75994;DHT22;64680;53.800;9.988;2023-12-14T00:23:58;3.10;89.70
75994;DHT22;64680;53.800;9.988;2023-12-14T00:26:24;3.10;89.20
75994;DHT22;64680;53.800;9.988;2023-12-14T00:28:50;3.20;89.70
75994;DHT22;64680;53.800;9.988;2023-12-14T00:31:16;3.20;89.90
75994;DHT22;64680;53.800;9.988;2023-12-14T00:33:42;3.20;89.80
75994;DHT22;64680;53.800;9.988;2023-12-14T00:36:08;3.20;89.10
75994;DHT22;64680;53.800;9.988;2023-12-14T00:38:34;3.20;88.90
75994;DHT22;64680;53.800;9.988;2023-12-14T00:40:59;3.20;88.20
75994;DHT22;64680;53.800;9.988;2023-12-14T00:43:25;3.20;86.70
75994;DHT22;64680;53.800;9.988;2023-12-14T00:45:51;3.20;86.80
75994;DHT22;64680;53.800;9.988;2023-12-14T00:48:17;3.20;86.50
75994;DHT22;64680;53.800;9.988;2023-12-14T00:50:43;3.20;85.60
75994;DHT22;64680;53.800;9.988;2023-12-14T00:53:09;3.20;84.70
75994;DHT22;64680;53.800;9.988;2023-12-14T00:55:34;3.30;85.70
75994;DHT22;64680;53.800;9.988;2023-12-14T00:58:00;3.20;85.50
75994;DHT22;64680;53.800;9.988;2023-12-14T01:00:25;3.20;85.20
75994;DHT22;64680;53.800;9.988;2023-12-14T01:02:51;3.20;85.60
75994;DHT22;64680;53.800;9.988;2023-12-14T01:05:17;3.20;85.00
75994;DHT22;64680;53.800;9.988;2023-12-14T01:07:42;3.30;84.00
75994;DHT22;64680;53.800;9.988;2023-12-14T01:10:08;3.20;83.10
75994;DHT22;64680;53.800;9.988;2023-12-14T01:12:34;3.30;84.90
75994;DHT22;64680;53.800;9.988;2023-12-14T01:14:59;3.30;83.50
75994;DHT22;64680;53.800;9.988;2023-12-14T01:17:25;3.30;83.20
75994;DHT22;64680;53.800;9.988;2023-12-14T01:19:51;3.30;82.30
75994;DHT22;64680;53.800;9.988;2023-12-14T01:22:16;3.30;82.80
75994;DHT22;64680;53.800;9.988;2023-12-14T01:24:42;3.20;82.40
75994;DHT22;64680;53.800;9.988;2023-12-14T01:27:08;3.20;82.20
75994;DHT22;64680;53.800;9.988;2023-12-14T01:29:35;3.20;81.90
75994;DHT22;64680;53.800;9.988;2023-12-14T01:32:01;3.30;82.60
75994;DHT22;64680;53.800;9.988;2023-12-14T01:34:26;3.30;82.40
75994;DHT22;64680;53.800;9.988;2023-12-14T01:36:52;3.30;82.10
75994;DHT22;64680;53.800;9.988;2023-12-14T01:39:17;3.20;82.70
75994;DHT22;64680;53.800;9.988;2023-12-14T01:41:43;3.20;83.20
75994;DHT22;64680;53.800;9.988;2023-12-14T01:44:08;3.30;83.70
75994;DHT22;64680;53.800;9.988;2023-12-14T01:46:34;3.20;83.90
75994;DHT22;64680;53.800;9.988;2023-12-14T01:48:59;3.20;84.60
75994;DHT22;64680;53.800;9.988;2023-12-14T01:51:25;3.20;85.50
75994;DHT22;64680;53.800;9.988;2023-12-14T01:53:51;3.20;85.80
75994;DHT22;64680;53.800;9.988;2023-12-14T01:56:16;3.20;87.10
75994;DHT22;64680;53.800;9.988;2023-12-14T01:58:42;3.20;87.70
75994;DHT22;64680;53.800;9.988;2023-12-14T02:01:56;3.20;88.30
75994;DHT22;64680;53.800;9.988;2023-12-14T02:04:03;3.20;88.60
75994;DHT22;64680;53.800;9.988;2023-12-14T02:06:31;3.20;88.60
75994;DHT22;64680;53.800;9.988;2023-12-14T02:08:57;3.20;89.50
75994;DHT22;64680;53.800;9.988;2023-12-14T02:11:23;3.20;89.60
75994;DHT22;64680;53.800;9.988;2023-12-14T02:13:48;3.20;89.10
75994;DHT22;64680;53.800;9.988;2023-12-14T02:16:14;3.20;88.50
75994;DHT22;64680;53.800;9.988;2023-12-14T02:18:40;3.20;87.60
75994;DHT22;64680;53.800;9.988;2023-12-14T02:21:06;3.20;87.60
75994;DHT22;64680;53.800;9.988;2023-12-14T02:23:31;3.20;86.70
75994;DHT22;64680;53.800;9.988;2023-12-14T02:25:57;3.20;86.90
75994;DHT22;64680;53.800;9.988;2023-12-14T02:28:23;3.20;86.50
75994;DHT22;64680;53.800;9.988;2023-12-14T02:30:48;3.20;86.20
75994;DHT22;64680;53.800;9.988;2023-12-14T02:33:14;3.20;85.80
75994;DHT22;64680;53.800;9.988;2023-12-14T02:35:40;3.20;85.30
75994;DHT22;64680;53.800;9.988;2023-12-14T02:38:06;3.20;83.00
75994;DHT22;64680;53.800;9.988;2023-12-14T02:40:31;3.20;82.50
75994;DHT22;64680;53.800;9.988;2023-12-14T02:42:57;3.20;82.00
75994;DHT22;64680;53.800;9.988;2023-12-14T02:45:22;3.30;82.40
75994;DHT22;64680;53.800;9.988;2023-12-14T02:47:48;3.20;81.40
75994;DHT22;64680;53.800;9.988;2023-12-14T02:50:15;3.20;80.80
75994;DHT22;64680;53.800;9.988;2023-12-14T02:52:41;3.30;81.00
75994;DHT22;64680;53.800;9.988;2023-12-14T02:55:06;3.20;79.80
75994;DHT22;64680;53.800;9.988;2023-12-14T02:57:32;3.30;79.10
75994;DHT22;64680;53.800;9.988;2023-12-14T02:59:58;3.30;78.10
75994;DHT22;64680;53.800;9.988;2023-12-14T03:02:23;3.30;78.00
75994;DHT22;64680;53.800;9.988;2023-12-14T03:04:49;3.30;76.20
75994;DHT22;64680;53.800;9.988;2023-12-14T03:07:14;3.30;77.20
75994;DHT22;64680;53.800;9.988;2023-12-14T03:09:40;3.30;76.30
75994;DHT22;64680;53.800;9.988;2023-12-14T03:12:10;3.30;74.80
75994;DHT22;64680;53.800;9.988;2023-12-14T03:14:36;3.30;76.00
75994;DHT22;64680;53.800;9.988;2023-12-14T03:17:02;3.20;75.40
75994;DHT22;64680;53.800;9.988;2023-12-14T03:19:28;3.20;75.70
75994;DHT22;64680;53.800;9.988;2023-12-14T03:21:53;3.20;75.20
75994;DHT22;64680;53.800;9.988;2023-12-14T03:24:20;3.20;75.90
75994;DHT22;64680;53.800;9.988;2023-12-14T03:26:45;3.30;74.80
75994;DHT22;64680;53.800;9.988;2023-12-14T03:29:11;3.30;74.90
75994;DHT22;64680;53.800;9.988;2023-12-14T03:31:36;3.30;74.10
75994;DHT22;64680;53.800;9.988;2023-12-14T03:34:02;3.20;73.50
75994;DHT22;64680;53.800;9.988;2023-12-14T03:36:28;3.20;74.10
75994;DHT22;64680;53.800;9.988;2023-12-14T03:38:54;3.20;75.20
75994;DHT22;64680;53.800;9.988;2023-12-14T03:41:20;3.20;75.80
75994;DHT22;64680;53.800;9.988;2023-12-14T03:43:45;3.20;77.40
75994;DHT22;64680;53.800;9.988;2023-12-14T03:46:11;3.20;77.50
75994;DHT22;64680;53.800;9.988;2023-12-14T03:48:37;3.10;79.00
75994;DHT22;64680;53.800;9.988;2023-12-14T03:51:03;3.10;80.70
75994;DHT22;64680;53.800;9.988;2023-12-14T03:53:29;3.10;81.00
75994;DHT22;64680;53.800;9.988;2023-12-14T03:55:55;3.10;81.40
75994;DHT22;64680;53.800;9.988;2023-12-14T03:58:21;3.10;83.20
75994;DHT22;64680;53.800;9.988;2023-12-14T04:00:46;3.00;84.60
75994;DHT22;64680;53.800;9.988;2023-12-14T04:03:12;3.00;86.00
75994;DHT22;64680;53.800;9.988;2023-12-14T04:05:38;3.00;87.60
75994;DHT22;64680;53.800;9.988;2023-12-14T04:08:04;3.00;88.30
75994;DHT22;64680;53.800;9.988;2023-12-14T04:10:30;3.00;88.70
75994;DHT22;64680;53.800;9.988;2023-12-14T04:12:56;3.00;89.50
75994;DHT22;64680;53.800;9.988;2023-12-14T04:15:21;3.00;91.20
75994;DHT22;64680;53.800;9.988;2023-12-14T04:17:47;2.90;90.40
75994;DHT22;64680;53.800;9.988;2023-12-14T04:20:13;2.90;90.90
75994;DHT22;64680;53.800;9.988;2023-12-14T04:22:43;2.90;91.50
75994;DHT22;64680;53.800;9.988;2023-12-14T04:25:08;2.90;92.40
75994;DHT22;64680;53.800;9.988;2023-12-14T04:27:34;2.90;92.80
75994;DHT22;64680;53.800;9.988;2023-12-14T04:30:00;2.90;92.40
75994;DHT22;64680;53.800;9.988;2023-12-14T04:32:25;2.90;92.60
75994;DHT22;64680;53.800;9.988;2023-12-14T04:34:51;2.80;92.80
75994;DHT22;64680;53.800;9.988;2023-12-14T04:37:16;2.80;93.30
75994;DHT22;64680;53.800;9.988;2023-12-14T04:39:42;2.80;93.20
75994;DHT22;64680;53.800;9.988;2023-12-14T04:42:08;2.80;93.60
75994;DHT22;64680;53.800;9.988;2023-12-14T04:44:33;2.80;94.20
75994;DHT22;64680;53.800;9.988;2023-12-14T04:46:59;2.80;94.50
75994;DHT22;64680;53.800;9.988;2023-12-14T04:49:25;2.80;94.10
75994;DHT22;64680;53.800;9.988;2023-12-14T04:51:50;2.80;94.00
75994;DHT22;64680;53.800;9.988;2023-12-14T04:54:16;2.70;94.80
75994;DHT22;64680;53.800;9.988;2023-12-14T04:56:45;2.80;95.60
75994;DHT22;64680;53.800;9.988;2023-12-14T04:59:11;2.70;95.90
75994;DHT22;64680;53.800;9.988;2023-12-14T05:01:37;2.80;96.30
75994;DHT22;64680;53.800;9.988;2023-12-14T05:04:02;2.80;96.30
75994;DHT22;64680;53.800;9.988;2023-12-14T05:06:28;2.70;96.70
75994;DHT22;64680;53.800;9.988;2023-12-14T05:08:54;2.80;97.00
75994;DHT22;64680;53.800;9.988;2023-12-14T05:11:21;2.80;96.90
75994;DHT22;64680;53.800;9.988;2023-12-14T05:13:46;2.80;97.20
75994;DHT22;64680;53.800;9.988;2023-12-14T05:16:15;2.80;97.00
75994;DHT22;64680;53.800;9.988;2023-12-14T05:18:41;2.80;97.30
75994;DHT22;64680;53.800;9.988;2023-12-14T05:21:06;2.80;97.00
75994;DHT22;64680;53.800;9.988;2023-12-14T05:23:32;2.80;96.90
75994;DHT22;64680;53.800;9.988;2023-12-14T05:25:58;2.80;96.50
75994;DHT22;64680;53.800;9.988;2023-12-14T05:28:24;2.70;96.20
75994;DHT22;64680;53.800;9.988;2023-12-14T05:30:49;2.70;95.30
75994;DHT22;64680;53.800;9.988;2023-12-14T05:33:15;2.80;95.50
75994;DHT22;64680;53.800;9.988;2023-12-14T05:35:41;2.80;94.90
75994;DHT22;64680;53.800;9.988;2023-12-14T05:38:06;2.80;94.70
75994;DHT22;64680;53.800;9.988;2023-12-14T05:40:32;2.80;94.70
75994;DHT22;64680;53.800;9.988;2023-12-14T05:42:57;2.80;94.90
75994;DHT22;64680;53.800;9.988;2023-12-14T05:45:28;2.80;95.00
75994;DHT22;64680;53.800;9.988;2023-12-14T05:47:54;2.80;94.00
75994;DHT22;64680;53.800;9.988;2023-12-14T05:50:19;2.80;93.50
75994;DHT22;64680;53.800;9.988;2023-12-14T05:52:48;2.80;93.20
75994;DHT22;64680;53.800;9.988;2023-12-14T05:55:14;2.80;93.30
75994;DHT22;64680;53.800;9.988;2023-12-14T05:57:39;2.80;93.80
75994;DHT22;64680;53.800;9.988;2023-12-14T06:00:06;2.80;93.60
75994;DHT22;64680;53.800;9.988;2023-12-14T06:02:33;2.80;93.60
75994;DHT22;64680;53.800;9.988;2023-12-14T06:04:58;2.80;94.30
75994;DHT22;64680;53.800;9.988;2023-12-14T06:07:24;2.80;94.40
75994;DHT22;64680;53.800;9.988;2023-12-14T06:09:52;2.80;93.90
75994;DHT22;64680;53.800;9.988;2023-12-14T06:12:18;2.80;95.20
75994;DHT22;64680;53.800;9.988;2023-12-14T06:14:44;2.80;93.50
75994;DHT22;64680;53.800;9.988;2023-12-14T06:17:10;2.80;92.70
75994;DHT22;64680;53.800;9.988;2023-12-14T06:19:36;2.80;92.40
75994;DHT22;64680;53.800;9.988;2023-12-14T06:22:01;2.80;91.90
75994;DHT22;64680;53.800;9.988;2023-12-14T06:24:27;2.80;92.00
75994;DHT22;64680;53.800;9.988;2023-12-14T06:26:52;2.80;92.70
75994;DHT22;64680;53.800;9.988;2023-12-14T06:29:18;2.80;92.70
75994;DHT22;64680;53.800;9.988;2023-12-14T06:31:45;2.80;92.30
75994;DHT22;64680;53.800;9.988;2023-12-14T06:34:11;2.80;91.70
75994;DHT22;64680;53.800;9.988;2023-12-14T06:36:42;2.80;91.20
75994;DHT22;64680;53.800;9.988;2023-12-14T06:39:08;2.80;91.30
75994;DHT22;64680;53.800;9.988;2023-12-14T06:41:33;2.80;90.90
75994;DHT22;64680;53.800;9.988;2023-12-14T06:43:59;2.80;90.90
75994;DHT22;64680;53.800;9.988;2023-12-14T06:46:25;2.90;90.80
75994;DHT22;64680;53.800;9.988;2023-12-14T06:48:51;2.80;90.20
75994;DHT22;64680;53.800;9.988;2023-12-14T06:51:16;2.80;89.80
75994;DHT22;64680;53.800;9.988;2023-12-14T06:53:43;2.80;89.50
75994;DHT22;64680;53.800;9.988;2023-12-14T06:56:09;2.80;89.80
75994;DHT22;64680;53.800;9.988;2023-12-14T06:58:40;2.90;88.90
75994;DHT22;64680;53.800;9.988;2023-12-14T07:01:06;2.90;87.60
75994;DHT22;64680;53.800;9.988;2023-12-14T07:03:32;2.80;87.30
75994;DHT22;64680;53.800;9.988;2023-12-14T07:05:58;2.80;87.60
75994;DHT22;64680;53.800;9.988;2023-12-14T07:08:24;2.90;87.30
75994;DHT22;64680;53.800;9.988;2023-12-14T07:10:50;2.80;86.70
75994;DHT22;64680;53.800;9.988;2023-12-14T07:13:16;2.80;85.80
75994;DHT22;64680;53.800;9.988;2023-12-14T07:15:41;2.90;85.40
75994;DHT22;64680;53.800;9.988;2023-12-14T07:18:07;2.90;83.90
75994;DHT22;64680;53.800;9.988;2023-12-14T07:20:33;2.90;83.20
75994;DHT22;64680;53.800;9.988;2023-12-14T07:22:58;2.80;83.40
75994;DHT22;64680;53.800;9.988;2023-12-14T07:25:24;2.90;84.90
75994;DHT22;64680;53.800;9.988;2023-12-14T07:27:52;2.90;84.20
75994;DHT22;64680;53.800;9.988;2023-12-14T07:30:18;2.90;84.20
75994;DHT22;64680;53.800;9.988;2023-12-14T07:32:43;2.90;84.20
75994;DHT22;64680;53.800;9.988;2023-12-14T07:35:09;2.90;83.90
75994;DHT22;64680;53.800;9.988;2023-12-14T07:37:35;2.90;84.00
75994;DHT22;64680;53.800;9.988;2023-12-14T07:40:01;2.90;84.10
75994;DHT22;64680;53.800;9.988;2023-12-14T07:42:27;2.90;84.20
75994;DHT22;64680;53.800;9.988;2023-12-14T07:44:52;2.80;84.50
75994;DHT22;64680;53.800;9.988;2023-12-14T07:47:20;2.90;84.40
75994;DHT22;64680;53.800;9.988;2023-12-14T07:49:45;2.90;84.40
75994;DHT22;64680;53.800;9.988;2023-12-14T07:52:11;2.90;82.90
75994;DHT22;64680;53.800;9.988;2023-12-14T07:54:39;2.80;83.40
75994;DHT22;64680;53.800;9.988;2023-12-14T07:57:05;2.80;83.30
75994;DHT22;64680;53.800;9.988;2023-12-14T07:59:30;2.80;84.30
75994;DHT22;64680;53.800;9.988;2023-12-14T08:01:56;2.80;84.70
75994;DHT22;64680;53.800;9.988;2023-12-14T08:04:22;2.80;84.00
75994;DHT22;64680;53.800;9.988;2023-12-14T08:06:47;2.80;82.90
75994;DHT22;64680;53.800;9.988;2023-12-14T08:09:13;2.80;83.40
75994;DHT22;64680;53.800;9.988;2023-12-14T08:11:38;2.80;83.20
75994;DHT22;64680;53.800;9.988;2023-12-14T08:14:04;2.80;83.80
75994;DHT22;64680;53.800;9.988;2023-12-14T08:16:29;2.80;82.50
75994;DHT22;64680;53.800;9.988;2023-12-14T08:18:55;2.80;82.00
75994;DHT22;64680;53.800;9.988;2023-12-14T08:21:21;2.80;82.70
75994;DHT22;64680;53.800;9.988;2023-12-14T08:23:46;2.80;83.50
75994;DHT22;64680;53.800;9.988;2023-12-14T08:26:12;2.80;85.00
75994;DHT22;64680;53.800;9.988;2023-12-14T08:28:39;2.80;86.60
75994;DHT22;64680;53.800;9.988;2023-12-14T08:31:05;2.80;87.50
75994;DHT22;64680;53.800;9.988;2023-12-14T08:33:30;2.80;89.70
75994;DHT22;64680;53.800;9.988;2023-12-14T08:35:56;2.80;90.40
75994;DHT22;64680;53.800;9.988;2023-12-14T08:38:22;2.70;91.20
75994;DHT22;64680;53.800;9.988;2023-12-14T08:40:48;2.70;92.00
75994;DHT22;64680;53.800;9.988;2023-12-14T08:43:14;2.80;93.10
75994;DHT22;64680;53.800;9.988;2023-12-14T08:45:39;2.80;94.20
75994;DHT22;64680;53.800;9.988;2023-12-14T08:48:05;2.80;94.00
75994;DHT22;64680;53.800;9.988;2023-12-14T08:50:31;2.80;92.40
75994;DHT22;64680;53.800;9.988;2023-12-14T08:52:57;2.80;92.80
75994;DHT22;64680;53.800;9.988;2023-12-14T08:55:24;2.90;91.20
75994;DHT22;64680;53.800;9.988;2023-12-14T08:57:50;2.90;89.40
75994;DHT22;64680;53.800;9.988;2023-12-14T09:00:17;2.90;89.00
75994;DHT22;64680;53.800;9.988;2023-12-14T09:02:46;2.90;88.20
75994;DHT22;64680;53.800;9.988;2023-12-14T09:05:12;2.90;88.00
75994;DHT22;64680;53.800;9.988;2023-12-14T09:07:39;3.00;86.80
75994;DHT22;64680;53.800;9.988;2023-12-14T09:10:05;3.00;86.00
75994;DHT22;64680;53.800;9.988;2023-12-14T09:12:32;3.00;84.30
75994;DHT22;64680;53.800;9.988;2023-12-14T09:15:00;3.00;83.80
75994;DHT22;64680;53.800;9.988;2023-12-14T09:17:26;3.00;84.30
75994;DHT22;64680;53.800;9.988;2023-12-14T09:19:52;3.00;85.40
75994;DHT22;64680;53.800;9.988;2023-12-14T09:22:17;3.00;85.90
75994;DHT22;64680;53.800;9.988;2023-12-14T09:24:43;3.00;84.70
75994;DHT22;64680;53.800;9.988;2023-12-14T09:27:09;3.00;83.90
75994;DHT22;64680;53.800;9.988;2023-12-14T09:29:34;2.90;85.20
75994;DHT22;64680;53.800;9.988;2023-12-14T09:32:00;2.90;85.30
75994;DHT22;64680;53.800;9.988;2023-12-14T09:34:26;2.90;85.40
75994;DHT22;64680;53.800;9.988;2023-12-14T09:36:51;2.90;85.40
75994;DHT22;64680;53.800;9.988;2023-12-14T09:39:17;2.90;86.00
75994;DHT22;64680;53.800;9.988;2023-12-14T09:41:44;3.00;85.60
75994;DHT22;64680;53.800;9.988;2023-12-14T09:44:11;3.00;85.90
75994;DHT22;64680;53.800;9.988;2023-12-14T09:46:38;3.00;85.40
75994;DHT22;64680;53.800;9.988;2023-12-14T09:49:04;3.00;83.80
75994;DHT22;64680;53.800;9.988;2023-12-14T09:51:30;3.00;83.60
75994;DHT22;64680;53.800;9.988;2023-12-14T09:53:56;3.00;82.70
75994;DHT22;64680;53.800;9.988;2023-12-14T09:56:25;3.00;84.40
75994;DHT22;64680;53.800;9.988;2023-12-14T09:58:51;3.00;84.00
75994;DHT22;64680;53.800;9.988;2023-12-14T10:01:27;3.00;84.20
75994;DHT22;64680;53.800;9.988;2023-12-14T10:04:10;3.10;83.20
75994;DHT22;64680;53.800;9.988;2023-12-14T10:06:37;3.10;82.50
75994;DHT22;64680;53.800;9.988;2023-12-14T10:09:03;3.10;83.00
75994;DHT22;64680;53.800;9.988;2023-12-14T10:11:30;3.10;84.50
75994;DHT22;64680;53.800;9.988;2023-12-14T10:13:55;3.20;84.50
75994;DHT22;64680;53.800;9.988;2023-12-14T10:16:31;3.20;82.80
75994;DHT22;64680;53.800;9.988;2023-12-14T10:18:58;3.30;82.30
75994;DHT22;64680;53.800;9.988;2023-12-14T10:21:27;3.20;83.20
75994;DHT22;64680;53.800;9.988;2023-12-14T10:23:56;3.30;81.80
75994;DHT22;64680;53.800;9.988;2023-12-14T10:26:24;3.40;81.60
75994;DHT22;64680;53.800;9.988;2023-12-14T10:28:51;3.30;79.30
75994;DHT22;64680;53.800;9.988;2023-12-14T10:31:18;3.30;79.20
75994;DHT22;64680;53.800;9.988;2023-12-14T10:33:45;3.30;79.80
75994;DHT22;64680;53.800;9.988;2023-12-14T10:36:13;3.30;78.10
75994;DHT22;64680;53.800;9.988;2023-12-14T10:38:39;3.30;79.40
75994;DHT22;64680;53.800;9.988;2023-12-14T10:41:05;3.30;77.60
75994;DHT22;64680;53.800;9.988;2023-12-14T10:43:36;3.30;79.30
75994;DHT22;64680;53.800;9.988;2023-12-14T10:46:01;3.40;79.20
75994;DHT22;64680;53.800;9.988;2023-12-14T10:48:29;3.30;74.90
75994;DHT22;64680;53.800;9.988;2023-12-14T10:50:56;3.30;75.10
75994;DHT22;64680;53.800;9.988;2023-12-14T10:53:25;3.30;76.00
75994;DHT22;64680;53.800;9.988;2023-12-14T10:55:51;3.40;78.00
75994;DHT22;64680;53.800;9.988;2023-12-14T10:58:19;3.40;75.80
75994;DHT22;64680;53.800;9.988;2023-12-14T11:00:59;3.30;73.50
75994;DHT22;64680;53.800;9.988;2023-12-14T11:03:26;3.30;73.20
75994;DHT22;64680;53.800;9.988;2023-12-14T11:05:51;3.30;73.50
75994;DHT22;64680;53.800;9.988;2023-12-14T11:08:17;3.30;73.40
75994;DHT22;64680;53.800;9.988;2023-12-14T11:10:53;3.30;75.70
75994;DHT22;64680;53.800;9.988;2023-12-14T11:13:23;3.30;73.70
75994;DHT22;64680;53.800;9.988;2023-12-14T11:15:51;3.30;73.70
75994;DHT22;64680;53.800;9.988;2023-12-14T11:18:24;3.20;74.50
75994;DHT22;64680;53.800;9.988;2023-12-14T11:20:53;3.30;74.60
75994;DHT22;64680;53.800;9.988;2023-12-14T11:25:58;3.30;71.10
75994;DHT22;64680;53.800;9.988;2023-12-14T11:28:25;3.30;72.10
75994;DHT22;64680;53.800;9.988;2023-12-14T11:30:51;3.40;72.40
75994;DHT22;64680;53.800;9.988;2023-12-14T11:33:17;3.40;71.40
75994;DHT22;64680;53.800;9.988;2023-12-14T11:35:43;3.30;71.80
75994;DHT22;64680;53.800;9.988;2023-12-14T11:38:08;3.30;71.40
75994;DHT22;64680;53.800;9.988;2023-12-14T11:40:42;3.30;71.00
75994;DHT22;64680;53.800;9.988;2023-12-14T11:43:08;3.30;72.90
75994;DHT22;64680;53.800;9.988;2023-12-14T11:45:38;3.20;72.20
75994;DHT22;64680;53.800;9.988;2023-12-14T11:48:08;3.40;71.20
75994;DHT22;64680;53.800;9.988;2023-12-14T11:50:36;3.30;67.60
75994;DHT22;64680;53.800;9.988;2023-12-14T11:53:03;3.20;69.80
75994;DHT22;64680;53.800;9.988;2023-12-14T11:55:29;3.30;68.00
75994;DHT22;64680;53.800;9.988;2023-12-14T11:57:58;3.30;67.20
75994;DHT22;64680;53.800;9.988;2023-12-14T12:00:28;3.20;68.00
75994;DHT22;64680;53.800;9.988;2023-12-14T12:03:13;3.30;67.10
75994;DHT22;64680;53.800;9.988;2023-12-14T12:05:44;3.30;65.60
75994;DHT22;64680;53.800;9.988;2023-12-14T12:08:10;3.30;63.10
75994;DHT22;64680;53.800;9.988;2023-12-14T12:10:37;3.20;63.60
75994;DHT22;64680;53.800;9.988;2023-12-14T12:13:06;3.20;64.20
75994;DHT22;64680;53.800;9.988;2023-12-14T12:15:35;3.20;66.20
75994;DHT22;64680;53.800;9.988;2023-12-14T12:18:06;3.20;65.90
75994;DHT22;64680;53.800;9.988;2023-12-14T12:20:32;3.20;66.10
75994;DHT22;64680;53.800;9.988;2023-12-14T12:22:58;3.20;67.10
75994;DHT22;64680;53.800;9.988;2023-12-14T12:25:24;3.20;66.30
75994;DHT22;64680;53.800;9.988;2023-12-14T12:27:49;3.20;66.20
75994;DHT22;64680;53.800;9.988;2023-12-14T12:30:15;3.20;66.50
75994;DHT22;64680;53.800;9.988;2023-12-14T12:32:41;3.20;65.90
75994;DHT22;64680;53.800;9.988;2023-12-14T12:35:07;3.20;67.40
75994;DHT22;64680;53.800;9.988;2023-12-14T12:37:33;3.30;69.10
75994;DHT22;64680;53.800;9.988;2023-12-14T12:39:59;3.30;67.40
75994;DHT22;64680;53.800;9.988;2023-12-14T12:42:25;3.20;64.00
75994;DHT22;64680;53.800;9.988;2023-12-14T12:44:51;3.30;65.50
75994;DHT22;64680;53.800;9.988;2023-12-14T12:47:17;3.30;67.60
75994;DHT22;64680;53.800;9.988;2023-12-14T12:49:45;3.30;64.80
75994;DHT22;64680;53.800;9.988;2023-12-14T12:52:11;3.30;65.40
75994;DHT22;64680;53.800;9.988;2023-12-14T12:54:36;3.30;65.90
75994;DHT22;64680;53.800;9.988;2023-12-14T12:57:02;3.30;66.80
75994;DHT22;64680;53.800;9.988;2023-12-14T12:59:27;3.20;65.00
75994;DHT22;64680;53.800;9.988;2023-12-14T13:01:53;3.20;65.80
75994;DHT22;64680;53.800;9.988;2023-12-14T13:04:20;3.20;64.00
75994;DHT22;64680;53.800;9.988;2023-12-14T13:06:50;3.20;63.70
75994;DHT22;64680;53.800;9.988;2023-12-14T13:09:16;3.20;65.00
75994;DHT22;64680;53.800;9.988;2023-12-14T13:11:45;3.20;65.40
75994;DHT22;64680;53.800;9.988;2023-12-14T13:14:11;3.20;64.80
75994;DHT22;64680;53.800;9.988;2023-12-14T13:16:37;3.20;65.10
75994;DHT22;64680;53.800;9.988;2023-12-14T13:19:03;3.20;64.50
75994;DHT22;64680;53.800;9.988;2023-12-14T13:21:30;3.20;65.00
75994;DHT22;64680;53.800;9.988;2023-12-14T13:23:56;3.20;64.90
75994;DHT22;64680;53.800;9.988;2023-12-14T13:26:24;3.20;65.60
75994;DHT22;64680;53.800;9.988;2023-12-14T13:28:51;3.20;66.20
75994;DHT22;64680;53.800;9.988;2023-12-14T13:31:17;3.10;66.60
75994;DHT22;64680;53.800;9.988;2023-12-14T13:33:42;3.10;65.60
75994;DHT22;64680;53.800;9.988;2023-12-14T13:36:08;3.10;66.80
75994;DHT22;64680;53.800;9.988;2023-12-14T13:38:34;3.10;66.90
75994;DHT22;64680;53.800;9.988;2023-12-14T13:41:02;3.20;66.90
75994;DHT22;64680;53.800;9.988;2023-12-14T13:43:31;3.10;66.90
75994;DHT22;64680;53.800;9.988;2023-12-14T13:45:57;3.10;66.60
75994;DHT22;64680;53.800;9.988;2023-12-14T13:48:25;3.10;66.80
75994;DHT22;64680;53.800;9.988;2023-12-14T13:50:52;3.00;67.60
75994;DHT22;64680;53.800;9.988;2023-12-14T13:53:17;3.10;68.70
75994;DHT22;64680;53.800;9.988;2023-12-14T13:55:43;3.10;68.60
75994;DHT22;64680;53.800;9.988;2023-12-14T13:58:08;3.00;68.90
75994;DHT22;64680;53.800;9.988;2023-12-14T14:00:34;3.00;68.40
75994;DHT22;64680;53.800;9.988;2023-12-14T14:03:03;3.00;69.80
75994;DHT22;64680;53.800;9.988;2023-12-14T14:05:29;3.00;70.70
75994;DHT22;64680;53.800;9.988;2023-12-14T14:07:56;3.00;70.30
75994;DHT22;64680;53.800;9.988;2023-12-14T14:10:22;2.90;68.90
75994;DHT22;64680;53.800;9.988;2023-12-14T14:12:47;2.90;69.60
75994;DHT22;64680;53.800;9.988;2023-12-14T14:15:13;2.90;69.50
75994;DHT22;64680;53.800;9.988;2023-12-14T14:17:39;2.80;68.90
75994;DHT22;64680;53.800;9.988;2023-12-14T14:20:06;2.80;69.00
75994;DHT22;64680;53.800;9.988;2023-12-14T14:22:32;2.80;69.50
75994;DHT22;64680;53.800;9.988;2023-12-14T14:24:58;2.80;68.10
75994;DHT22;64680;53.800;9.988;2023-12-14T14:27:24;2.70;69.90
75994;DHT22;64680;53.800;9.988;2023-12-14T14:29:50;2.70;70.20
75994;DHT22;64680;53.800;9.988;2023-12-14T14:32:15;2.60;72.10
75994;DHT22;64680;53.800;9.988;2023-12-14T14:34:42;2.60;72.00
75994;DHT22;64680;53.800;9.988;2023-12-14T14:37:08;2.50;71.40
75994;DHT22;64680;53.800;9.988;2023-12-14T14:39:33;2.50;71.90
75994;DHT22;64680;53.800;9.988;2023-12-14T14:41:59;2.50;72.80
75994;DHT22;64680;53.800;9.988;2023-12-14T14:44:25;2.40;73.50
75994;DHT22;64680;53.800;9.988;2023-12-14T14:46:51;2.40;73.80
75994;DHT22;64680;53.800;9.988;2023-12-14T14:49:17;2.30;74.60
75994;DHT22;64680;53.800;9.988;2023-12-14T14:51:43;2.30;74.90
75994;DHT22;64680;53.800;9.988;2023-12-14T14:54:08;2.20;74.90
75994;DHT22;64680;53.800;9.988;2023-12-14T14:56:34;2.20;74.50
75994;DHT22;64680;53.800;9.988;2023-12-14T14:59:00;2.10;74.10
75994;DHT22;64680;53.800;9.988;2023-12-14T15:01:26;2.00;73.20
75994;DHT22;64680;53.800;9.988;2023-12-14T15:03:51;1.90;73.20
75994;DHT22;64680;53.800;9.988;2023-12-14T15:06:17;1.80;74.50
75994;DHT22;64680;53.800;9.988;2023-12-14T15:08:42;1.70;76.20
75994;DHT22;64680;53.800;9.988;2023-12-14T15:11:08;1.60;77.00
75994;DHT22;64680;53.800;9.988;2023-12-14T15:13:36;1.60;77.60
75994;DHT22;64680;53.800;9.988;2023-12-14T15:16:02;1.50;78.50
75994;DHT22;64680;53.800;9.988;2023-12-14T15:18:28;1.50;80.10
75994;DHT22;64680;53.800;9.988;2023-12-14T15:20:53;1.50;80.50
75994;DHT22;64680;53.800;9.988;2023-12-14T15:23:19;1.50;81.30
75994;DHT22;64680;53.800;9.988;2023-12-14T15:25:45;1.40;81.90
75994;DHT22;64680;53.800;9.988;2023-12-14T15:28:10;1.40;82.80
75994;DHT22;64680;53.800;9.988;2023-12-14T15:30:36;1.40;83.50
75994;DHT22;64680;53.800;9.988;2023-12-14T15:33:02;1.50;85.40
75994;DHT22;64680;53.800;9.988;2023-12-14T15:35:28;1.50;85.40
75994;DHT22;64680;53.800;9.988;2023-12-14T15:37:54;1.50;86.30
75994;DHT22;64680;53.800;9.988;2023-12-14T15:40:19;1.50;85.70
75994;DHT22;64680;53.800;9.988;2023-12-14T15:42:45;1.50;84.60